Time;durP1;ratioP1;P1;durP2;ratioP2;P2;SDS_P1;SDS_P2;PMS_P1;PMS_P2;Temp;Humidity;BMP_temperature;BMP_pressure;BME280_temperature;BME280_humidity;BME280_pressure;Samples;Min_cycle;Max_cycle;Signal;HPM_P1;HPM_P2
2021/12/15 00:01:07;;;;;;;51.63;18.80;;;6.00;99.90;;;;;;5026709;28;20044;-67
2021/12/15 00:03:33;;;;;;;57.40;19.20;;;5.90;99.90;;;;;;5020211;28;20029;-68
2021/12/15 00:05:59;;;;;;;57.38;18.85;;;6.00;99.90;;;;;;5031179;28;20029;-69
2021/12/15 00:08:25;;;;;;;56.45;18.90;;;6.00;99.90;;;;;;5029915;28;20018;-68
2021/12/15 00:10:52;;;;;;;54.97;18.85;;;6.00;99.90;;;;;;5012606;28;20029;-68
2021/12/15 00:13:20;;;;;;;54.50;20.00;;;6.00;99.90;;;;;;5008932;28;20041;-68
2021/12/15 00:15:47;;;;;;;55.17;18.40;;;6.00;99.90;;;;;;5013691;28;20059;-68
2021/12/15 00:18:13;;;;;;;59.70;17.55;;;6.00;99.90;;;;;;5013403;28;20029;-68
2021/12/15 00:20:40;;;;;;;59.67;18.90;;;6.00;99.90;;;;;;5013512;28;20048;-68
2021/12/15 00:23:07;;;;;;;48.17;17.83;;;6.00;99.90;;;;;;5031396;28;20049;-68
2021/12/15 00:25:36;;;;;;;51.58;18.52;;;6.00;99.90;;;;;;5031098;28;20021;-68
2021/12/15 00:28:03;;;;;;;56.85;17.67;;;6.00;99.90;;;;;;5030561;28;20025;-68
2021/12/15 00:30:28;;;;;;;53.05;18.45;;;6.00;99.90;;;;;;5028449;28;20482;-69
2021/12/15 00:32:54;;;;;;;52.70;17.80;;;6.00;99.90;;;;;;5013252;28;20132;-68
2021/12/15 00:35:21;;;;;;;49.95;17.58;;;6.00;99.90;;;;;;5013984;28;20551;-68
2021/12/15 00:37:48;;;;;;;59.42;17.77;;;6.00;99.90;;;;;;5012872;28;20408;-70
2021/12/15 00:40:17;;;;;;;48.72;16.60;;;6.00;99.90;;;;;;5013466;28;20121;-68
2021/12/15 00:42:43;;;;;;;48.95;16.85;;;6.00;99.90;;;;;;5014683;28;20113;-68
2021/12/15 00:45:10;;;;;;;56.10;17.48;;;6.00;99.90;;;;;;5028340;28;20022;-69
2021/12/15 00:47:36;;;;;;;50.53;16.75;;;6.00;99.90;;;;;;5012639;28;20033;-68
2021/12/15 00:50:06;;;;;;;47.72;17.50;;;6.00;99.90;;;;;;5013370;28;20075;-68
2021/12/15 00:52:37;;;;;;;57.35;18.77;;;6.00;99.90;;;;;;5013923;28;20493;-68
2021/12/15 00:55:08;;;;;;;61.88;18.90;;;6.00;99.90;;;;;;5012996;28;20405;-67
2021/12/15 00:57:34;;;;;;;53.95;17.38;;;6.00;99.90;;;;;;5029097;28;20094;-68
2021/12/15 01:00:00;;;;;;;60.78;18.05;;;6.10;99.90;;;;;;5012987;28;20441;-68
2021/12/15 01:02:26;;;;;;;49.47;17.98;;;6.00;99.90;;;;;;5011403;28;20013;-69
2021/12/15 01:04:52;;;;;;;58.33;17.70;;;6.00;99.90;;;;;;5013606;28;20025;-68
2021/12/15 01:07:18;;;;;;;55.65;17.80;;;6.10;99.90;;;;;;5028828;28;20022;-68
2021/12/15 01:09:51;;;;;;;52.03;17.20;;;6.10;99.90;;;;;;5022995;28;20030;-69
2021/12/15 01:20:39;;;;;;;48.17;16.58;;;6.00;99.90;;;;;;5022946;28;20540;-70
2021/12/15 01:23:08;;;;;;;50.80;16.98;;;6.00;99.90;;;;;;5013131;28;20029;-67
2021/12/15 01:25:53;;;;;;;47.22;15.98;;;5.90;99.90;;;;;;5012065;28;20040;-67
2021/12/15 01:28:19;;;;;;;40.05;15.07;;;6.00;99.90;;;;;;5012076;28;20104;-69
2021/12/15 01:30:47;;;;;;;41.92;15.43;;;5.90;99.90;;;;;;5011832;28;20029;-67
2021/12/15 01:33:14;;;;;;;43.92;16.27;;;5.90;99.90;;;;;;5012987;28;20351;-69
2021/12/15 01:35:43;;;;;;;48.70;17.00;;;5.90;99.90;;;;;;5012201;28;20056;-68
2021/12/15 01:38:09;;;;;;;48.67;16.88;;;5.90;99.90;;;;;;5010805;28;20075;-68
2021/12/15 01:40:38;;;;;;;43.72;16.30;;;6.00;99.90;;;;;;5011812;28;20133;-68
2021/12/15 01:43:18;;;;;;;41.35;15.40;;;5.90;99.90;;;;;;5016295;28;20021;-68
2021/12/15 01:48:38;;;;;;;37.58;14.60;;;5.90;99.90;;;;;;5029295;28;20411;-68
2021/12/15 01:51:08;;;;;;;51.88;17.27;;;6.00;99.90;;;;;;5012423;28;20029;-67
2021/12/15 01:53:33;;;;;;;45.33;15.63;;;5.90;99.90;;;;;;5012326;28;20163;-68
2021/12/15 01:56:00;;;;;;;43.88;15.63;;;6.00;99.90;;;;;;5012264;28;20124;-68
2021/12/15 01:58:26;;;;;;;43.90;15.88;;;5.90;99.90;;;;;;5011910;28;20037;-69
2021/12/15 02:00:59;;;;;;;47.42;16.90;;;5.90;99.90;;;;;;5017678;28;20371;-68
2021/12/15 02:03:25;;;;;;;50.38;18.02;;;5.90;99.90;;;;;;5031449;28;20044;-69
2021/12/15 02:05:52;;;;;;;48.30;18.33;;;5.80;99.90;;;;;;5016447;28;20040;-68
2021/12/15 02:08:17;;;;;;;53.72;19.08;;;5.80;99.90;;;;;;5024132;28;20493;-68
2021/12/15 02:10:45;;;;;;;46.63;18.33;;;5.80;99.90;;;;;;5016146;28;20061;-70
2021/12/15 02:13:14;;;;;;;52.33;18.08;;;5.80;99.90;;;;;;5026204;28;20036;-70
2021/12/15 02:15:45;;;;;;;52.20;20.20;;;5.90;99.90;;;;;;5012325;28;20033;-68
2021/12/15 02:18:14;;;;;;;55.50;19.48;;;5.90;99.90;;;;;;5027759;28;20466;-68
2021/12/15 02:20:44;;;;;;;64.82;19.67;;;5.90;99.90;;;;;;5028285;28;20547;-69
2021/12/15 02:23:14;;;;;;;56.65;19.55;;;5.90;99.90;;;;;;5028988;28;20108;-68
2021/12/15 02:25:40;;;;;;;65.22;20.15;;;5.90;99.90;;;;;;5013523;28;20030;-68
2021/12/15 02:28:08;;;;;;;55.90;19.42;;;5.90;99.90;;;;;;5027578;28;20033;-68
2021/12/15 02:30:49;;;;;;;59.85;19.45;;;5.80;99.90;;;;;;5025885;28;20030;-68
2021/12/15 02:38:40;;;;;;;59.70;19.63;;;5.80;99.90;;;;;;5020281;28;20127;-68
2021/12/15 02:41:13;;;;;;;53.05;18.20;;;5.80;99.90;;;;;;4995219;28;20044;-67
2021/12/15 02:43:39;;;;;;;55.45;18.50;;;5.80;99.90;;;;;;5008550;28;20036;-68
2021/12/15 02:46:06;;;;;;;55.30;18.65;;;5.80;99.90;;;;;;5004788;28;20028;-69
2021/12/15 02:48:32;;;;;;;53.20;17.50;;;5.80;99.90;;;;;;5012923;28;20025;-68
2021/12/15 02:50:59;;;;;;;54.80;18.63;;;5.80;99.90;;;;;;5015546;28;20025;-67
2021/12/15 02:53:25;;;;;;;59.58;19.05;;;5.80;99.90;;;;;;5032255;28;20026;-68
2021/12/15 02:55:52;;;;;;;48.20;16.90;;;5.80;99.90;;;;;;5013990;28;20034;-68
2021/12/15 02:58:19;;;;;;;49.47;17.55;;;5.80;99.90;;;;;;5030842;28;20025;-68
2021/12/15 03:01:00;;;;;;;50.42;17.63;;;5.80;99.90;;;;;;5015399;28;20028;-68
2021/12/15 03:03:54;;;;;;;55.42;18.90;;;5.80;99.90;;;;;;5015164;28;20030;-67
2021/12/15 03:06:19;;;;;;;48.08;18.48;;;5.80;99.90;;;;;;5031382;28;20041;-68
2021/12/15 03:16:41;;;;;;;48.97;16.70;;;5.70;99.90;;;;;;5032506;28;20044;-68
2021/12/15 03:19:08;;;;;;;49.95;18.52;;;5.70;99.90;;;;;;5029777;28;20112;-68
2021/12/15 03:21:33;;;;;;;47.67;17.10;;;5.70;99.90;;;;;;5014236;28;20116;-68
2021/12/15 03:24:13;;;;;;;49.72;18.30;;;5.70;99.90;;;;;;5021829;28;20450;-69
2021/12/15 03:26:47;;;;;;;46.80;17.90;;;5.60;99.90;;;;;;5021328;28;20052;-67
2021/12/15 03:35:47;;;;;;;47.65;17.65;;;5.70;99.90;;;;;;5033594;28;20037;-69
2021/12/15 03:37:38;;;;;;;53.67;17.58;;;5.70;99.90;;;;;;5022239;28;20108;-68
2021/12/15 03:40:16;;;;;;;46.38;17.92;;;5.70;99.90;;;;;;5014118;28;20120;-68
2021/12/15 03:42:46;;;;;;;52.95;19.42;;;5.70;99.90;;;;;;5009602;28;20497;-69
2021/12/15 03:45:29;;;;;;;51.03;18.70;;;5.70;99.90;;;;;;5002590;28;20398;-67
2021/12/15 03:47:57;;;;;;;51.85;18.92;;;5.60;99.90;;;;;;5002365;28;20029;-68
2021/12/15 03:50:25;;;;;;;55.42;18.65;;;5.60;99.90;;;;;;5007148;28;20018;-68
2021/12/15 03:52:51;;;;;;;57.28;20.33;;;5.60;99.90;;;;;;5004531;28;20033;-68
2021/12/15 03:55:22;;;;;;;56.30;18.45;;;5.70;99.90;;;;;;5012846;28;20025;-69
2021/12/15 03:57:48;;;;;;;46.20;17.58;;;5.60;99.90;;;;;;5010587;28;20509;-68
2021/12/15 04:00:15;;;;;;;51.08;19.88;;;5.60;99.90;;;;;;5019349;28;20063;-68
2021/12/15 04:02:45;;;;;;;43.60;17.17;;;5.70;99.90;;;;;;5026006;28;20091;-69
2021/12/15 04:05:14;;;;;;;47.15;18.40;;;5.70;99.90;;;;;;5014462;28;20029;-68
2021/12/15 04:07:40;;;;;;;59.85;20.02;;;5.70;99.90;;;;;;5029399;28;20448;-68
2021/12/15 04:10:10;;;;;;;51.90;18.40;;;5.70;99.90;;;;;;5013608;28;20033;-68
2021/12/15 04:12:36;;;;;;;50.35;18.35;;;5.70;99.90;;;;;;5014627;28;20063;-68
2021/12/15 04:15:26;;;;;;;52.85;18.45;;;5.70;99.90;;;;;;5014089;28;20120;-69
2021/12/15 04:17:58;;;;;;;56.67;18.50;;;5.70;99.90;;;;;;5013029;28;20064;-68
2021/12/15 04:20:27;;;;;;;49.00;18.38;;;5.70;99.90;;;;;;5030154;28;20108;-68
2021/12/15 04:22:53;;;;;;;49.60;17.42;;;5.70;99.90;;;;;;5027756;28;20022;-70
2021/12/15 04:25:23;;;;;;;48.58;17.63;;;5.70;99.90;;;;;;5030487;28;20426;-68
2021/12/15 04:27:54;;;;;;;53.58;17.90;;;5.70;99.90;;;;;;5012121;28;20029;-70
2021/12/15 04:30:20;;;;;;;56.05;19.13;;;5.60;99.90;;;;;;5013833;28;20378;-68
2021/12/15 04:32:49;;;;;;;46.38;16.45;;;5.60;99.90;;;;;;5014093;28;20107;-68
2021/12/15 04:35:15;;;;;;;56.67;18.27;;;5.70;99.90;;;;;;5013664;28;20565;-69
2021/12/15 04:37:42;;;;;;;49.78;18.13;;;5.70;99.90;;;;;;5013069;28;20038;-69
2021/12/15 04:40:12;;;;;;;46.60;18.25;;;5.70;99.90;;;;;;5013430;28;20029;-69
2021/12/15 04:42:39;;;;;;;51.67;18.88;;;5.70;99.90;;;;;;5005658;28;20030;-69
2021/12/15 04:45:07;;;;;;;48.90;17.42;;;5.70;99.90;;;;;;5008684;28;20084;-67
2021/12/15 04:47:33;;;;;;;54.45;18.52;;;5.70;99.90;;;;;;5006908;28;20507;-68
2021/12/15 04:49:59;;;;;;;54.28;19.02;;;5.70;99.90;;;;;;5008118;28;20120;-68
2021/12/15 04:52:28;;;;;;;49.53;19.15;;;5.70;99.90;;;;;;5011173;28;20385;-67
2021/12/15 04:54:56;;;;;;;50.22;18.60;;;5.60;99.90;;;;;;5013207;28;20017;-68
2021/12/15 04:57:22;;;;;;;48.33;18.63;;;5.60;99.90;;;;;;5012363;28;20457;-69
2021/12/15 04:59:49;;;;;;;49.50;17.30;;;5.60;99.90;;;;;;5029205;28;20390;-69
2021/12/15 05:02:17;;;;;;;47.65;18.38;;;5.60;99.90;;;;;;5012680;28;20775;-68
2021/12/15 05:04:44;;;;;;;52.38;19.00;;;5.60;99.90;;;;;;5013019;28;20017;-68
2021/12/15 05:07:09;;;;;;;44.38;16.30;;;5.60;99.90;;;;;;5012200;28;20021;-68
2021/12/15 05:09:36;;;;;;;55.28;17.77;;;5.60;99.90;;;;;;5013127;28;20521;-67
2021/12/15 05:12:04;;;;;;;48.25;17.98;;;5.70;99.90;;;;;;5018409;28;20438;-68
2021/12/15 05:14:31;;;;;;;54.58;18.65;;;5.60;99.90;;;;;;5013009;28;20055;-68
2021/12/15 05:16:56;;;;;;;49.67;17.80;;;5.70;99.90;;;;;;5012924;28;20022;-68
2021/12/15 05:19:24;;;;;;;45.60;16.77;;;5.60;99.90;;;;;;5011035;28;20473;-70
2021/12/15 05:21:51;;;;;;;43.08;16.60;;;5.60;99.90;;;;;;5006008;28;20419;-70
2021/12/15 05:26:54;;;;;;;45.25;16.42;;;5.60;99.90;;;;;;5029390;28;20049;-69
2021/12/15 05:29:21;;;;;;;40.60;15.98;;;5.70;99.90;;;;;;5012404;28;20022;-68
2021/12/15 05:31:47;;;;;;;52.13;18.13;;;5.70;99.90;;;;;;5029064;28;20029;-68
2021/12/15 05:34:13;;;;;;;47.08;18.05;;;5.70;99.90;;;;;;5029294;28;20327;-68
2021/12/15 05:36:39;;;;;;;44.83;16.95;;;5.80;99.90;;;;;;5027434;28;20079;-69
2021/12/15 05:39:06;;;;;;;40.47;16.30;;;5.80;99.90;;;;;;5011299;28;20033;-69
2021/12/15 05:41:34;;;;;;;46.92;16.65;;;5.80;99.90;;;;;;5028576;28;20065;-68
2021/12/15 05:44:01;;;;;;;53.63;18.70;;;5.80;99.90;;;;;;5013480;28;20025;-68
2021/12/15 05:46:26;;;;;;;48.60;17.30;;;5.80;99.90;;;;;;5011377;28;20051;-68
2021/12/15 05:48:52;;;;;;;45.97;16.60;;;5.80;99.90;;;;;;5038116;28;20029;-68
2021/12/15 05:51:18;;;;;;;46.95;17.13;;;5.90;99.90;;;;;;5003658;28;20126;-68
2021/12/15 05:53:44;;;;;;;48.10;17.33;;;5.90;99.90;;;;;;5004932;28;20029;-68
2021/12/15 05:58:37;;;;;;;50.97;17.73;;;5.90;99.90;;;;;;5035129;28;20496;-72
2021/12/15 06:01:04;;;;;;;48.97;17.75;;;5.80;99.90;;;;;;5012909;28;20025;-70
2021/12/15 06:03:30;;;;;;;49.78;16.42;;;5.80;99.90;;;;;;5012902;28;20025;-70
2021/12/15 06:05:56;;;;;;;44.28;16.58;;;5.80;99.90;;;;;;5012969;28;20457;-70
2021/12/15 06:08:22;;;;;;;48.15;16.75;;;5.80;99.90;;;;;;5012539;28;20026;-70
2021/12/15 06:10:48;;;;;;;60.83;19.45;;;5.80;99.90;;;;;;5013542;28;20036;-70
2021/12/15 06:13:14;;;;;;;66.18;18.50;;;5.80;99.90;;;;;;5014124;28;20033;-71
2021/12/15 06:15:42;;;;;;;55.72;18.67;;;5.80;99.90;;;;;;5013831;28;20495;-71
2021/12/15 06:18:10;;;;;;;69.45;18.88;;;5.80;99.90;;;;;;5015993;28;20051;-70
2021/12/15 06:20:37;;;;;;;64.88;20.02;;;5.80;99.90;;;;;;5017464;28;20036;-71
2021/12/15 06:23:09;;;;;;;68.32;19.23;;;5.80;99.90;;;;;;5017862;28;20450;-71
2021/12/15 06:25:36;;;;;;;62.38;19.42;;;5.80;99.90;;;;;;5014741;28;20029;-70
2021/12/15 06:28:02;;;;;;;67.07;18.80;;;5.80;99.90;;;;;;5004977;28;20036;-73
2021/12/15 06:30:28;;;;;;;69.82;20.17;;;5.80;99.90;;;;;;5020014;28;20031;-72
2021/12/15 06:32:54;;;;;;;62.55;18.73;;;5.80;99.90;;;;;;5017429;28;20448;-69
2021/12/15 06:35:20;;;;;;;69.68;19.73;;;5.80;99.90;;;;;;5017397;28;20026;-70
2021/12/15 06:37:45;;;;;;;63.75;18.95;;;5.80;99.90;;;;;;5016332;28;20053;-70
2021/12/15 06:40:12;;;;;;;50.50;16.63;;;5.70;99.90;;;;;;5016284;28;20033;-70
2021/12/15 06:42:41;;;;;;;58.05;16.92;;;5.80;99.90;;;;;;5016434;28;20033;-70
2021/12/15 06:45:11;;;;;;;55.35;17.98;;;5.80;99.90;;;;;;5017091;28;20022;-72
2021/12/15 06:58:24;;;;;;;57.00;17.63;;;5.80;99.90;;;;;;5033505;28;20480;-69
2021/12/15 07:00:53;;;;;;;59.63;18.60;;;5.80;99.90;;;;;;5015874;28;20026;-70
2021/12/15 07:03:22;;;;;;;56.03;17.52;;;5.80;99.90;;;;;;5016021;28;20049;-71
2021/12/15 07:05:48;;;;;;;60.05;18.52;;;5.80;99.90;;;;;;5016461;28;20029;-70
2021/12/15 07:08:15;;;;;;;66.97;18.85;;;5.80;99.90;;;;;;5015790;28;20017;-69
2021/12/15 07:10:44;;;;;;;62.33;18.80;;;5.80;99.90;;;;;;5016440;28;20035;-69
2021/12/15 07:13:11;;;;;;;58.38;19.15;;;5.80;99.90;;;;;;5016534;28;20021;-69
2021/12/15 07:15:38;;;;;;;58.83;17.92;;;5.80;99.90;;;;;;5033036;28;20030;-69
2021/12/15 07:18:09;;;;;;;56.33;17.42;;;5.80;99.90;;;;;;5032457;28;20025;-70
2021/12/15 07:23:11;;;;;;;55.50;16.95;;;5.70;99.90;;;;;;5029006;28;20037;-70
2021/12/15 07:25:39;;;;;;;47.92;16.88;;;5.70;99.90;;;;;;5013464;28;20025;-69
2021/12/15 07:28:06;;;;;;;50.88;17.42;;;5.80;99.90;;;;;;5014795;28;20017;-70
2021/12/15 07:30:33;;;;;;;52.17;17.17;;;5.80;99.90;;;;;;5016195;28;20053;-71
2021/12/15 07:32:59;;;;;;;52.78;17.55;;;5.80;99.90;;;;;;5014828;28;20057;-69
2021/12/15 07:35:25;;;;;;;52.08;17.55;;;5.80;99.90;;;;;;5001117;28;20474;-73
2021/12/15 07:37:51;;;;;;;51.20;17.88;;;5.80;99.90;;;;;;5008228;28;20030;-70
2021/12/15 07:40:21;;;;;;;54.05;18.00;;;5.80;99.90;;;;;;5015794;28;20026;-70
2021/12/15 07:43:23;;;;;;;47.13;17.25;;;5.80;99.90;;;;;;5015616;28;20029;-71
2021/12/15 07:45:50;;;;;;;47.88;16.42;;;5.80;99.90;;;;;;5031894;28;20525;-71
2021/12/15 07:48:17;;;;;;;49.77;18.17;;;5.80;99.90;;;;;;5011225;28;20040;-70
2021/12/15 07:50:46;;;;;;;43.50;16.63;;;5.80;99.90;;;;;;5015804;28;20496;-69
2021/12/15 07:53:13;;;;;;;41.60;15.15;;;5.90;99.90;;;;;;5016084;28;20030;-70
2021/12/15 07:55:39;;;;;;;32.22;14.38;;;5.80;99.90;;;;;;5015847;28;20060;-70
2021/12/15 07:58:07;;;;;;;36.15;15.07;;;5.80;99.90;;;;;;5014649;28;20111;-70
2021/12/15 08:00:36;;;;;;;35.45;14.18;;;5.90;99.90;;;;;;5015733;28;20171;-69
2021/12/15 08:03:01;;;;;;;42.05;16.15;;;5.90;99.90;;;;;;5015881;28;20116;-70
2021/12/15 08:05:28;;;;;;;38.13;16.13;;;5.80;99.90;;;;;;5015696;28;20481;-70
2021/12/15 08:07:53;;;;;;;33.15;15.52;;;5.90;99.90;;;;;;5014687;28;20452;-70
2021/12/15 08:10:20;;;;;;;36.90;14.57;;;5.90;99.90;;;;;;5015690;28;20060;-70
2021/12/15 08:12:46;;;;;;;54.35;22.13;;;5.90;99.90;;;;;;5015306;28;20029;-69
2021/12/15 08:15:14;;;;;;;34.00;15.13;;;5.90;99.90;;;;;;5015442;28;20120;-70
2021/12/15 08:17:41;;;;;;;34.53;14.52;;;5.90;99.90;;;;;;5014638;28;20063;-70
2021/12/15 08:20:10;;;;;;;31.80;14.68;;;5.90;99.90;;;;;;5031741;28;20029;-71
2021/12/15 08:22:37;;;;;;;31.40;14.63;;;5.90;99.90;;;;;;5015217;28;20013;-70
2021/12/15 08:25:04;;;;;;;34.10;15.05;;;5.90;99.90;;;;;;5014737;28;20021;-71
2021/12/15 08:27:30;;;;;;;29.23;15.43;;;5.90;99.90;;;;;;5014342;28;20466;-69
2021/12/15 08:29:56;;;;;;;31.25;15.38;;;5.90;99.90;;;;;;5015259;28;20048;-69
2021/12/15 08:32:22;;;;;;;33.13;15.57;;;6.00;99.90;;;;;;5014787;28;20480;-70
2021/12/15 08:34:48;;;;;;;34.08;15.20;;;6.00;99.90;;;;;;5016788;28;20071;-72
2021/12/15 08:37:14;;;;;;;35.33;16.08;;;5.90;99.90;;;;;;5019342;28;20439;-72
2021/12/15 08:39:44;;;;;;;29.15;13.88;;;6.00;99.90;;;;;;5017141;28;20438;-70
2021/12/15 08:42:11;;;;;;;36.35;15.55;;;6.00;99.90;;;;;;4995228;28;20025;-70
2021/12/15 08:44:37;;;;;;;33.75;15.00;;;6.00;99.90;;;;;;4995682;28;20499;-70
2021/12/15 08:47:03;;;;;;;27.15;14.95;;;6.00;99.90;;;;;;5013068;28;20034;-70
2021/12/15 08:49:29;;;;;;;29.73;15.25;;;6.00;99.90;;;;;;5014991;28;20052;-69
2021/12/15 08:51:55;;;;;;;30.58;14.57;;;6.00;99.90;;;;;;5014800;28;20021;-70
2021/12/15 08:54:22;;;;;;;29.23;15.35;;;6.00;99.90;;;;;;5014783;28;20094;-70
2021/12/15 08:56:50;;;;;;;28.63;14.38;;;6.10;99.90;;;;;;5015894;28;20099;-70
2021/12/15 08:59:16;;;;;;;26.17;14.70;;;6.10;99.90;;;;;;5013824;28;20018;-69
2021/12/15 09:01:43;;;;;;;24.23;13.10;;;6.10;99.90;;;;;;5014842;28;20036;-69
2021/12/15 09:04:09;;;;;;;25.10;13.45;;;6.10;99.90;;;;;;5014509;28;20032;-70
2021/12/15 09:06:36;;;;;;;27.20;14.32;;;6.10;99.90;;;;;;5014692;28;20018;-70
2021/12/15 09:09:09;;;;;;;29.60;14.77;;;6.20;99.90;;;;;;5013821;28;20104;-70
2021/12/15 09:11:35;;;;;;;32.15;16.17;;;6.20;99.90;;;;;;5014378;28;20033;-72
2021/12/15 09:14:03;;;;;;;25.75;14.88;;;6.20;99.90;;;;;;5014715;28;20029;-71
2021/12/15 09:16:31;;;;;;;30.60;15.48;;;6.20;99.90;;;;;;5014385;28;20543;-70
2021/12/15 09:19:01;;;;;;;28.90;14.88;;;6.30;99.90;;;;;;5013802;28;20561;-70
2021/12/15 09:21:29;;;;;;;26.38;14.05;;;6.30;99.90;;;;;;4994938;28;20029;-69
2021/12/15 09:23:56;;;;;;;26.95;14.23;;;6.30;99.90;;;;;;5011291;28;20497;-71
2021/12/15 09:26:22;;;;;;;22.52;12.82;;;6.30;99.90;;;;;;5001027;28;20029;-70
2021/12/15 09:28:49;;;;;;;28.65;14.50;;;6.30;99.90;;;;;;5013280;28;20032;-70
2021/12/15 09:31:16;;;;;;;28.25;13.93;;;6.30;99.90;;;;;;5014420;28;20029;-72
2021/12/15 09:33:44;;;;;;;26.17;13.55;;;6.40;99.90;;;;;;5014229;28;20079;-69
2021/12/15 09:36:12;;;;;;;23.52;13.68;;;6.40;99.90;;;;;;5022313;28;20021;-70
2021/12/15 09:38:39;;;;;;;26.85;14.27;;;6.40;99.90;;;;;;5012980;28;21025;-70
2021/12/15 09:41:07;;;;;;;26.65;14.32;;;6.50;99.90;;;;;;5014199;28;20444;-70
2021/12/15 09:43:34;;;;;;;22.48;13.48;;;6.50;99.90;;;;;;5014135;28;20459;-70
2021/12/15 09:46:11;;;;;;;25.33;14.15;;;6.50;99.90;;;;;;5013495;28;20056;-70
2021/12/15 10:02:25;;;;;;;17.73;10.60;;;6.60;99.90;;;;;;5035354;28;20044;-73
2021/12/15 10:18:32;;;;;;;17.08;10.65;;;6.70;99.90;;;;;;5038688;28;20048;-70
2021/12/15 10:20:59;;;;;;;16.08;9.80;;;6.70;99.90;;;;;;5016589;28;20068;-70
2021/12/15 10:23:34;;;;;;;17.70;10.82;;;6.70;99.90;;;;;;5017280;28;20017;-70
2021/12/15 10:26:00;;;;;;;16.88;9.82;;;6.70;99.90;;;;;;5016954;28;20389;-70
2021/12/15 10:28:29;;;;;;;16.73;10.25;;;6.70;99.90;;;;;;5016392;28;20017;-69
2021/12/15 10:31:00;;;;;;;17.63;10.95;;;6.70;99.90;;;;;;5016850;28;20022;-72
2021/12/15 10:33:25;;;;;;;19.35;12.50;;;6.80;99.90;;;;;;5017179;28;20030;-70
2021/12/15 10:36:19;;;;;;;20.85;11.88;;;6.80;99.90;;;;;;5022396;28;20030;-69
2021/12/15 10:38:53;;;;;;;20.27;12.45;;;6.90;99.90;;;;;;5008336;28;20502;-70
2021/12/15 10:41:32;;;;;;;23.95;13.60;;;6.90;99.90;;;;;;5016946;28;20021;-70
2021/12/15 10:43:59;;;;;;;23.88;13.80;;;6.90;99.90;;;;;;5016200;28;20030;-69
2021/12/15 10:46:34;;;;;;;28.80;14.35;;;6.90;99.90;;;;;;5018175;28;20022;-70
2021/12/15 10:49:02;;;;;;;25.30;15.00;;;6.90;99.90;;;;;;5019005;28;20026;-71
2021/12/15 10:51:37;;;;;;;19.90;12.48;;;6.80;99.90;;;;;;5017383;28;20041;-71
2021/12/15 10:54:19;;;;;;;20.48;11.07;;;6.90;99.90;;;;;;5016507;28;20497;-70
2021/12/15 10:56:58;;;;;;;22.50;12.43;;;6.90;99.90;;;;;;5034415;28;20619;-70
2021/12/15 10:59:27;;;;;;;19.80;11.90;;;6.90;99.90;;;;;;5020206;28;20028;-70
2021/12/15 11:02:02;;;;;;;18.65;10.52;;;6.90;99.90;;;;;;5035906;28;20053;-70
2021/12/15 11:04:33;;;;;;;16.88;10.38;;;6.90;99.90;;;;;;5018437;28;20032;-70
2021/12/15 11:07:01;;;;;;;15.10;9.95;;;6.90;99.90;;;;;;5018477;28;20481;-71
2021/12/15 11:09:37;;;;;;;16.98;11.15;;;6.90;99.90;;;;;;5019114;28;20608;-70
2021/12/15 11:12:05;;;;;;;18.08;11.32;;;6.90;99.90;;;;;;5019336;28;20017;-70
2021/12/15 11:14:34;;;;;;;16.95;10.10;;;6.90;99.90;;;;;;5018243;28;20021;-70
2021/12/15 11:17:16;;;;;;;19.70;10.60;;;6.90;99.90;;;;;;5018517;28;20049;-73
2021/12/15 11:19:49;;;;;;;15.27;8.70;;;6.90;99.90;;;;;;5012715;28;20116;-72
2021/12/15 11:22:33;;;;;;;16.95;9.68;;;6.90;99.90;;;;;;5016648;28;20754;-71
2021/12/15 11:25:00;;;;;;;14.23;9.25;;;6.90;99.90;;;;;;5017630;28;20049;-71
2021/12/15 11:27:27;;;;;;;15.82;9.77;;;6.90;99.90;;;;;;5025664;28;20030;-73
2021/12/15 11:29:52;;;;;;;14.80;8.60;;;6.90;99.90;;;;;;5034442;28;20417;-72
2021/12/15 11:32:41;;;;;;;14.95;9.20;;;6.90;99.90;;;;;;5018322;28;20030;-74
2021/12/15 11:35:16;;;;;;;15.80;9.93;;;6.90;99.90;;;;;;5016717;28;20036;-71
2021/12/15 11:38:04;;;;;;;15.68;9.70;;;6.90;99.90;;;;;;5023725;28;20105;-71
2021/12/15 11:40:44;;;;;;;14.13;9.63;;;7.00;99.90;;;;;;5013096;28;20166;-70
2021/12/15 11:43:26;;;;;;;15.10;9.50;;;7.00;99.90;;;;;;5012935;28;20026;-71
2021/12/15 11:45:52;;;;;;;19.75;10.95;;;7.00;99.90;;;;;;5020987;28;20017;-71
2021/12/15 11:48:22;;;;;;;14.88;9.70;;;7.00;99.90;;;;;;5015076;28;20473;-71
2021/12/15 11:50:50;;;;;;;15.70;10.30;;;7.00;99.90;;;;;;5015247;28;20065;-75
2021/12/15 11:53:33;;;;;;;6.13;5.00;;;7.00;99.90;;;;;;5014503;28;20033;-71
2021/12/15 11:56:17;;;;;;;7.03;5.28;;;7.10;99.90;;;;;;5007274;28;20052;-73
2021/12/15 11:58:44;;;;;;;6.22;4.13;;;7.00;99.90;;;;;;5007156;28;20049;-73
2021/12/15 12:01:30;;;;;;;6.18;4.57;;;7.00;99.90;;;;;;5031002;28;20032;-69
2021/12/15 12:04:31;;;;;;;6.10;5.03;;;7.00;99.90;;;;;;5017368;28;20120;-69
2021/12/15 12:07:14;;;;;;;9.50;6.28;;;7.00;99.90;;;;;;4969327;28;20029;-70
2021/12/15 12:09:43;;;;;;;7.93;5.65;;;6.90;99.90;;;;;;5009522;28;20382;-70
2021/12/15 12:12:10;;;;;;;3.55;3.20;;;6.90;99.90;;;;;;5028370;28;20053;-70
2021/12/15 12:14:48;;;;;;;6.28;4.60;;;6.90;99.90;;;;;;5014455;28;20071;-69
2021/12/15 12:17:21;;;;;;;7.13;4.90;;;6.90;99.90;;;;;;5015178;28;20436;-69
2021/12/15 12:19:59;;;;;;;7.30;5.60;;;6.90;99.90;;;;;;5020185;28;20493;-69
2021/12/15 12:22:30;;;;;;;6.85;5.03;;;6.80;99.90;;;;;;5017138;28;20035;-68
2021/12/15 12:24:59;;;;;;;4.18;3.28;;;6.80;99.90;;;;;;5015492;28;20037;-68
2021/12/15 12:27:28;;;;;;;3.88;3.10;;;6.80;99.90;;;;;;5014300;28;20018;-68
2021/12/15 12:29:56;;;;;;;4.20;3.13;;;6.70;99.90;;;;;;5014902;28;20116;-69
2021/12/15 12:32:23;;;;;;;5.63;3.88;;;6.70;99.90;;;;;;5015171;28;20029;-69
2021/12/15 12:34:52;;;;;;;3.83;3.10;;;6.80;99.90;;;;;;5015182;28;20029;-68
2021/12/15 12:37:18;;;;;;;6.70;4.78;;;6.80;99.90;;;;;;5028203;28;20047;-69
2021/12/15 12:39:53;;;;;;;8.55;5.70;;;6.80;99.90;;;;;;5030990;23;20021;-69
2021/12/15 12:42:40;;;;;;;9.90;7.43;;;6.80;99.90;;;;;;5014336;28;20030;-69
2021/12/15 12:45:11;;;;;;;9.98;6.82;;;6.70;99.90;;;;;;5014587;28;20025;-69
2021/12/15 12:47:44;;;;;;;9.40;6.60;;;6.70;99.90;;;;;;5013795;28;20465;-69
2021/12/15 12:57:59;;;;;;;9.02;6.80;;;6.70;99.90;;;;;;5044117;28;20051;-69
2021/12/15 13:01:36;;;;;;;7.70;5.25;;;6.60;99.90;;;;;;5032119;28;20454;-69
2021/12/15 13:04:10;;;;;;;9.10;6.35;;;6.70;99.90;;;;;;5014530;28;20053;-69
2021/12/15 13:06:42;;;;;;;8.60;6.10;;;6.60;99.90;;;;;;5013418;28;20025;-69
2021/12/15 13:09:16;;;;;;;10.60;6.78;;;6.60;99.90;;;;;;5013511;28;20553;-69
2021/12/15 13:11:46;;;;;;;13.65;8.77;;;6.60;99.90;;;;;;5020634;28;20033;-69
2021/12/15 13:14:33;;;;;;;11.35;6.80;;;6.60;99.90;;;;;;5007840;28;20036;-69
2021/12/15 13:17:06;;;;;;;6.63;5.05;;;6.70;99.90;;;;;;5012889;28;20032;-68
2021/12/15 13:19:39;;;;;;;7.63;5.25;;;6.70;99.90;;;;;;5013630;28;20116;-69
2021/12/15 13:30:42;;;;;;;5.18;3.38;;;6.60;99.90;;;;;;5031565;28;20083;-68
2021/12/15 13:33:16;;;;;;;3.55;3.25;;;6.70;99.90;;;;;;5013946;28;20060;-69
2021/12/15 13:35:44;;;;;;;3.45;3.10;;;6.60;99.90;;;;;;5030361;28;20029;-69
2021/12/15 13:38:12;;;;;;;5.07;3.78;;;6.60;99.90;;;;;;5012863;28;20021;-69
2021/12/15 13:41:03;;;;;;;6.75;4.32;;;6.60;99.90;;;;;;5012475;28;20047;-69
2021/12/15 13:43:50;;;;;;;6.80;4.90;;;6.70;99.90;;;;;;5022015;28;20757;-69
2021/12/15 13:46:29;;;;;;;6.88;4.45;;;6.70;99.90;;;;;;5013869;28;20026;-69
2021/12/15 13:48:54;;;;;;;9.90;6.57;;;6.70;99.90;;;;;;5012756;28;20033;-69
2021/12/15 13:51:57;;;;;;;9.48;7.38;;;6.70;99.90;;;;;;5013123;28;20409;-69
2021/12/15 13:54:43;;;;;;;9.90;7.00;;;6.60;99.90;;;;;;5021817;28;20400;-69
2021/12/15 13:57:12;;;;;;;9.65;7.03;;;6.60;99.90;;;;;;4993323;28;20167;-69
2021/12/15 13:59:43;;;;;;;10.02;7.60;;;6.50;99.90;;;;;;4993764;28;20055;-69
2021/12/15 14:02:09;;;;;;;14.02;8.18;;;6.50;99.90;;;;;;5010777;28;20021;-69
2021/12/15 14:04:55;;;;;;;13.35;8.68;;;6.50;99.90;;;;;;5013753;28;20031;-69
2021/12/15 14:07:44;;;;;;;12.70;8.75;;;6.50;99.90;;;;;;5012427;28;20025;-68
2021/12/15 14:10:10;;;;;;;12.30;8.10;;;6.50;99.90;;;;;;5017671;28;20036;-69
2021/12/15 14:12:45;;;;;;;12.32;8.68;;;6.40;99.90;;;;;;5009096;28;20056;-69
2021/12/15 14:15:14;;;;;;;11.48;8.45;;;6.40;99.90;;;;;;5012977;28;20060;-69
2021/12/15 14:17:40;;;;;;;10.68;7.15;;;6.40;99.90;;;;;;5012680;28;20025;-69
2021/12/15 14:20:15;;;;;;;14.20;7.90;;;6.40;99.90;;;;;;5013336;28;20489;-69
2021/12/15 14:22:41;;;;;;;9.77;6.85;;;6.40;99.90;;;;;;5013271;28;20501;-69
2021/12/15 14:25:08;;;;;;;7.97;6.50;;;6.40;99.90;;;;;;5012397;28;20025;-69
2021/12/15 14:27:34;;;;;;;8.38;5.93;;;6.40;99.90;;;;;;5013871;28;20040;-69